Time;durP1;ratioP1;P1;durP2;ratioP2;P2;SDS_P1;SDS_P2;PMS_P1;PMS_P2;Temp;Humidity;BMP_temperature;BMP_pressure;BME280_temperature;BME280_humidity;BME280_pressure;Samples;Min_cycle;Max_cycle;Signal;HPM_P1;HPM_P2
2021/07/20 00:02:36;;;;;;;19.25;14.90;;;18.80;99.90;;;;;;5072644;28;20039;-76
2021/07/20 00:05:04;;;;;;;16.57;13.67;;;18.80;99.90;;;;;;5054209;28;20020;-77
2021/07/20 00:07:29;;;;;;;19.35;15.52;;;18.70;99.90;;;;;;5072260;28;20020;-76
2021/07/20 00:09:55;;;;;;;18.90;14.27;;;18.70;99.90;;;;;;5071757;28;20086;-76
2021/07/20 00:12:20;;;;;;;21.05;15.35;;;18.70;99.90;;;;;;5054556;28;20111;-76
2021/07/20 00:14:46;;;;;;;17.88;14.90;;;18.60;99.90;;;;;;5053544;28;20029;-76
2021/07/20 00:17:12;;;;;;;19.52;16.92;;;18.60;99.90;;;;;;5072143;28;20424;-76
2021/07/20 00:19:37;;;;;;;17.75;15.15;;;18.50;99.90;;;;;;5071196;28;20032;-76
2021/07/20 00:22:03;;;;;;;18.75;16.40;;;18.50;99.90;;;;;;5072303;28;20146;-76
2021/07/20 00:24:28;;;;;;;16.75;14.98;;;18.50;99.90;;;;;;5071758;28;20031;-76
2021/07/20 00:26:54;;;;;;;17.88;14.77;;;18.50;99.90;;;;;;5074989;28;20017;-75
2021/07/20 00:29:20;;;;;;;19.35;15.18;;;18.50;99.90;;;;;;5079623;28;20055;-75
2021/07/20 00:31:45;;;;;;;18.67;14.73;;;18.40;99.90;;;;;;5072670;28;20029;-75
2021/07/20 00:34:11;;;;;;;16.33;14.55;;;18.40;99.90;;;;;;5073846;28;20108;-76
2021/07/20 00:36:36;;;;;;;19.27;15.95;;;18.30;99.90;;;;;;5072145;28;20020;-75
2021/07/20 00:39:04;;;;;;;21.13;16.00;;;18.30;99.90;;;;;;5071698;28;20033;-74
2021/07/20 00:41:30;;;;;;;19.38;15.35;;;18.30;99.90;;;;;;5072563;28;20103;-76
2021/07/20 00:43:55;;;;;;;21.10;16.15;;;18.20;99.90;;;;;;5053659;28;20111;-76
2021/07/20 00:46:21;;;;;;;16.40;14.60;;;18.20;99.90;;;;;;5072334;28;20017;-78
2021/07/20 00:48:46;;;;;;;19.70;15.38;;;18.10;99.90;;;;;;5070748;28;20035;-76
2021/07/20 00:51:12;;;;;;;19.90;16.13;;;18.10;99.90;;;;;;5071981;28;20032;-75
2021/07/20 00:53:38;;;;;;;20.23;16.00;;;18.10;99.90;;;;;;5054081;28;20028;-77
2021/07/20 00:56:04;;;;;;;19.27;15.57;;;18.10;99.90;;;;;;5071906;28;20384;-75
2021/07/20 00:58:30;;;;;;;19.92;15.60;;;18.00;99.90;;;;;;5075520;28;20032;-77
2021/07/20 01:00:56;;;;;;;19.02;14.98;;;18.00;99.90;;;;;;5053243;28;20032;-77
2021/07/20 01:03:21;;;;;;;19.58;15.02;;;17.90;99.90;;;;;;5071435;28;20399;-75
2021/07/20 01:05:48;;;;;;;20.33;15.18;;;17.90;99.90;;;;;;5071483;28;20071;-75
2021/07/20 01:08:15;;;;;;;22.05;14.95;;;17.90;99.90;;;;;;5070996;28;20019;-76
2021/07/20 01:10:42;;;;;;;16.98;15.18;;;17.80;99.90;;;;;;5070901;28;20514;-75
2021/07/20 01:13:08;;;;;;;18.20;15.35;;;17.70;99.90;;;;;;5064317;28;20029;-77
2021/07/20 01:15:36;;;;;;;20.25;14.15;;;17.70;99.90;;;;;;5071467;28;20039;-77
2021/07/20 01:18:03;;;;;;;17.88;14.68;;;17.70;99.90;;;;;;5071886;28;20116;-77
2021/07/20 01:20:31;;;;;;;19.77;14.15;;;17.60;99.90;;;;;;5071312;28;20028;-74
2021/07/20 01:23:22;;;;;;;17.63;15.23;;;17.60;99.90;;;;;;5071676;28;20039;-76
2021/07/20 01:25:48;;;;;;;19.35;14.10;;;17.60;99.90;;;;;;5070981;28;20027;-75
2021/07/20 01:28:18;;;;;;;20.02;14.63;;;17.60;99.90;;;;;;5071622;28;20029;-76
2021/07/20 01:30:47;;;;;;;17.88;12.95;;;17.60;99.90;;;;;;5053226;28;20020;-76
2021/07/20 01:33:15;;;;;;;18.10;14.05;;;17.50;99.90;;;;;;5074684;28;20108;-75
2021/07/20 01:35:43;;;;;;;17.35;13.18;;;17.50;99.90;;;;;;5075394;28;20472;-76
2021/07/20 01:38:11;;;;;;;16.05;13.63;;;17.40;99.90;;;;;;5074808;28;20052;-76
2021/07/20 01:40:38;;;;;;;16.77;14.00;;;17.40;99.90;;;;;;5075064;28;20451;-76
2021/07/20 01:43:05;;;;;;;15.32;13.70;;;17.50;99.90;;;;;;5066846;28;20593;-76
2021/07/20 01:45:34;;;;;;;17.40;13.30;;;17.40;99.90;;;;;;5075215;28;20028;-78
2021/07/20 01:48:00;;;;;;;17.42;14.13;;;17.40;99.90;;;;;;5074894;28;20028;-76
2021/07/20 01:50:28;;;;;;;19.75;13.90;;;17.30;99.90;;;;;;5050443;28;20100;-76
2021/07/20 01:52:55;;;;;;;18.10;14.35;;;17.30;99.90;;;;;;5074621;28;20024;-76
2021/07/20 01:55:24;;;;;;;18.33;14.40;;;17.30;99.90;;;;;;5073949;28;20025;-76
2021/07/20 01:57:51;;;;;;;15.57;13.60;;;17.20;99.90;;;;;;5074384;28;20501;-76
2021/07/20 02:00:18;;;;;;;17.13;13.73;;;17.20;99.90;;;;;;5074509;28;20087;-75
2021/07/20 02:08:39;;;;;;;19.02;14.57;;;17.00;99.90;;;;;;5086058;28;20326;-76
2021/07/20 02:11:10;;;;;;;21.15;14.18;;;17.00;99.90;;;;;;5056419;28;20036;-76
2021/07/20 02:13:43;;;;;;;20.00;14.60;;;16.90;99.90;;;;;;5076586;28;20017;-75
2021/07/20 02:16:13;;;;;;;20.80;14.88;;;16.90;99.90;;;;;;5075408;28;20395;-75
2021/07/20 02:18:43;;;;;;;18.13;15.25;;;16.90;99.90;;;;;;5075072;28;20033;-76
2021/07/20 02:21:09;;;;;;;20.33;14.67;;;16.80;99.90;;;;;;5087323;28;20020;-75
2021/07/20 02:23:36;;;;;;;18.60;14.70;;;16.80;99.90;;;;;;5074738;28;20027;-75
2021/07/20 02:26:02;;;;;;;19.63;14.70;;;16.80;99.90;;;;;;5092869;28;20020;-76
2021/07/20 02:28:29;;;;;;;20.83;14.98;;;16.70;99.90;;;;;;5092421;28;20140;-75
2021/07/20 02:30:56;;;;;;;21.90;15.98;;;16.70;99.90;;;;;;5074085;28;20021;-75
2021/07/20 02:33:23;;;;;;;21.05;14.57;;;16.70;99.90;;;;;;5095316;28;20031;-75
2021/07/20 02:35:50;;;;;;;16.48;13.80;;;16.60;99.90;;;;;;5094225;28;20016;-75
2021/07/20 02:38:18;;;;;;;18.35;15.25;;;16.60;99.90;;;;;;5078843;28;20019;-74
2021/07/20 02:40:45;;;;;;;18.90;14.85;;;16.60;99.90;;;;;;5074761;28;20392;-75
2021/07/20 02:43:12;;;;;;;19.80;15.40;;;16.60;99.90;;;;;;5076108;28;20254;-76
2021/07/20 02:45:39;;;;;;;23.95;15.43;;;16.50;99.90;;;;;;5090043;28;20020;-76
2021/07/20 02:48:05;;;;;;;18.67;14.57;;;16.50;99.90;;;;;;5058425;28;20090;-76
2021/07/20 02:50:34;;;;;;;19.70;14.55;;;16.50;99.90;;;;;;5073831;28;20043;-75
2021/07/20 02:53:01;;;;;;;18.20;14.23;;;16.50;99.90;;;;;;5074566;28;20044;-75
2021/07/20 02:55:27;;;;;;;19.73;13.75;;;16.40;99.90;;;;;;5073648;28;20538;-76
2021/07/20 02:57:54;;;;;;;18.83;13.95;;;16.40;99.90;;;;;;5074574;28;20066;-75
2021/07/20 03:00:21;;;;;;;21.70;14.50;;;16.40;99.90;;;;;;5073197;28;20020;-75
2021/07/20 03:02:48;;;;;;;18.13;13.52;;;16.30;99.90;;;;;;5071286;28;20020;-75
2021/07/20 03:05:15;;;;;;;24.38;14.20;;;16.30;99.90;;;;;;5073821;28;20091;-75
2021/07/20 03:07:47;;;;;;;14.98;13.07;;;16.20;99.90;;;;;;5055108;28;20483;-76
2021/07/20 03:10:15;;;;;;;17.42;13.52;;;16.20;99.90;;;;;;5073418;28;20395;-76
2021/07/20 03:12:44;;;;;;;15.45;12.43;;;16.20;99.90;;;;;;5055356;28;20025;-76
2021/07/20 03:15:10;;;;;;;16.25;14.10;;;16.20;99.90;;;;;;5081175;22;20040;-78
2021/07/20 03:17:36;;;;;;;19.55;14.00;;;16.20;99.90;;;;;;5078878;28;20028;-80
2021/07/20 03:20:04;;;;;;;16.42;13.25;;;16.20;99.90;;;;;;5079604;28;20031;-79
2021/07/20 03:22:33;;;;;;;20.88;15.32;;;16.20;99.90;;;;;;5079619;28;20082;-80
2021/07/20 03:25:02;;;;;;;16.35;13.90;;;16.10;99.90;;;;;;5065473;28;20396;-77
2021/07/20 03:27:31;;;;;;;20.00;13.93;;;16.20;99.90;;;;;;5040871;28;20027;-79
2021/07/20 03:29:59;;;;;;;18.30;13.75;;;16.10;99.90;;;;;;5058923;28;20088;-79
2021/07/20 03:32:26;;;;;;;17.05;13.77;;;16.10;99.90;;;;;;5058705;28;20021;-77
2021/07/20 03:34:53;;;;;;;17.92;14.45;;;16.00;99.90;;;;;;5041616;28;20385;-78
2021/07/20 03:37:20;;;;;;;15.35;12.82;;;16.10;99.90;;;;;;5058375;28;20228;-78
2021/07/20 03:39:46;;;;;;;16.25;14.15;;;16.10;99.90;;;;;;5060413;28;20020;-78
2021/07/20 03:42:13;;;;;;;15.70;13.25;;;16.00;99.90;;;;;;5059206;28;20021;-79
2021/07/20 03:44:39;;;;;;;18.77;13.45;;;16.00;99.90;;;;;;5061382;28;20327;-79
2021/07/20 03:47:06;;;;;;;20.35;13.45;;;16.00;99.90;;;;;;5060599;28;20028;-78
2021/07/20 03:49:33;;;;;;;15.50;13.38;;;16.00;99.90;;;;;;5042267;28;20048;-78
2021/07/20 03:52:01;;;;;;;17.48;13.27;;;16.00;99.90;;;;;;5061101;28;20397;-79
2021/07/20 03:54:30;;;;;;;17.50;13.70;;;15.90;99.90;;;;;;5058623;28;20032;-79
2021/07/20 03:56:57;;;;;;;14.63;13.10;;;15.90;99.90;;;;;;5060203;28;20055;-77
2021/07/20 03:59:25;;;;;;;20.88;14.45;;;16.00;99.90;;;;;;5041623;28;20031;-79
2021/07/20 04:01:52;;;;;;;17.70;14.25;;;16.00;99.90;;;;;;5058055;28;20443;-79
2021/07/20 04:04:19;;;;;;;16.73;13.52;;;16.10;99.90;;;;;;5059631;28;20047;-78
2021/07/20 04:06:46;;;;;;;17.35;13.90;;;16.10;99.90;;;;;;5059531;28;20025;-78
2021/07/20 04:09:13;;;;;;;20.92;14.23;;;16.10;99.90;;;;;;5058698;28;20036;-81
2021/07/20 04:11:40;;;;;;;20.30;13.68;;;16.10;99.90;;;;;;5061598;28;20028;-80
2021/07/20 04:14:06;;;;;;;21.25;14.65;;;16.10;99.90;;;;;;5065690;28;20029;-78
2021/07/20 04:16:33;;;;;;;24.75;13.98;;;16.20;99.90;;;;;;5060041;28;20028;-78
2021/07/20 04:18:59;;;;;;;16.83;12.95;;;16.20;99.90;;;;;;5057747;28;20032;-78
2021/07/20 04:21:25;;;;;;;20.77;12.98;;;16.30;99.90;;;;;;5057664;28;20020;-79
2021/07/20 04:23:52;;;;;;;22.50;15.02;;;16.40;99.90;;;;;;5057640;28;20013;-79
2021/07/20 04:26:18;;;;;;;17.38;13.02;;;16.30;99.90;;;;;;5058332;28;20570;-80
2021/07/20 04:28:44;;;;;;;18.17;13.07;;;16.40;99.90;;;;;;5057181;28;20484;-79
2021/07/20 04:31:10;;;;;;;15.20;13.13;;;16.40;99.90;;;;;;5057483;28;20032;-79
2021/07/20 04:33:37;;;;;;;18.52;12.63;;;16.40;99.90;;;;;;5058482;28;20039;-79
2021/07/20 04:36:04;;;;;;;17.67;14.10;;;16.50;99.90;;;;;;5057832;28;20017;-80
2021/07/20 04:38:36;;;;;;;20.33;12.73;;;16.60;99.90;;;;;;5057784;28;20380;-78
2021/07/20 04:41:02;;;;;;;19.65;12.95;;;16.50;99.90;;;;;;5057511;28;20032;-79
2021/07/20 04:43:28;;;;;;;16.45;12.65;;;16.60;99.90;;;;;;5057521;28;20048;-79
2021/07/20 04:45:56;;;;;;;17.48;12.93;;;16.50;99.90;;;;;;5058995;28;20025;-78
2021/07/20 04:48:22;;;;;;;17.40;12.70;;;16.60;99.90;;;;;;5057629;28;20024;-79
2021/07/20 04:50:49;;;;;;;18.13;12.68;;;16.70;99.90;;;;;;5058196;28;20037;-77
2021/07/20 04:53:16;;;;;;;17.08;12.35;;;16.70;99.90;;;;;;5058890;28;20067;-80
2021/07/20 04:55:44;;;;;;;15.07;12.77;;;16.80;99.90;;;;;;5042577;28;20033;-80
2021/07/20 04:58:10;;;;;;;16.77;13.10;;;17.00;99.90;;;;;;5059443;28;20043;-79
2021/07/20 05:00:36;;;;;;;16.33;11.77;;;17.40;99.90;;;;;;5058979;28;20025;-79
2021/07/20 05:03:04;;;;;;;16.90;11.88;;;17.60;99.90;;;;;;5058722;28;20032;-80
2021/07/20 05:05:37;;;;;;;19.58;11.68;;;17.90;99.90;;;;;;5057605;28;20013;-80
2021/07/20 05:08:03;;;;;;;15.93;12.00;;;18.10;99.90;;;;;;5039985;28;20408;-80
2021/07/20 05:10:29;;;;;;;14.38;11.93;;;18.40;99.90;;;;;;5060321;28;20024;-78
2021/07/20 05:12:55;;;;;;;13.30;10.68;;;18.20;99.90;;;;;;5068547;28;20074;-80
2021/07/20 05:15:20;;;;;;;19.52;12.98;;;18.80;99.90;;;;;;5070627;28;20013;-79
2021/07/20 05:17:47;;;;;;;16.73;11.18;;;19.40;99.90;;;;;;5073118;28;20032;-79
2021/07/20 05:20:17;;;;;;;15.60;11.30;;;19.50;99.90;;;;;;5076481;28;20052;-80
2021/07/20 05:22:44;;;;;;;12.48;10.27;;;19.80;99.90;;;;;;5076167;28;20032;-79
2021/07/20 05:25:12;;;;;;;12.02;10.82;;;20.30;99.90;;;;;;5051419;28;20017;-80
2021/07/20 05:27:43;;;;;;;15.75;12.13;;;20.20;99.90;;;;;;5065956;28;20039;-80
2021/07/20 05:30:10;;;;;;;14.05;10.63;;;20.30;99.90;;;;;;5037197;28;20029;-80
2021/07/20 05:32:39;;;;;;;13.48;9.30;;;20.50;99.90;;;;;;5059487;28;20025;-78
2021/07/20 05:35:09;;;;;;;13.73;10.48;;;20.60;99.90;;;;;;5058535;28;20033;-79
2021/07/20 05:37:36;;;;;;;11.67;9.97;;;20.40;99.90;;;;;;5063708;28;20059;-78
2021/07/20 05:40:04;;;;;;;20.60;10.27;;;20.60;99.90;;;;;;5046249;28;20029;-77
2021/07/20 05:42:32;;;;;;;15.98;11.18;;;20.90;99.90;;;;;;5063705;28;20032;-78
2021/07/20 05:44:58;;;;;;;14.95;11.05;;;20.90;99.90;;;;;;5061576;28;20044;-77
2021/07/20 05:47:26;;;;;;;13.68;10.10;;;20.60;99.90;;;;;;5063833;28;20024;-78
2021/07/20 05:49:52;;;;;;;14.57;10.45;;;20.80;99.90;;;;;;5058727;28;20028;-78
2021/07/20 05:52:18;;;;;;;12.02;10.45;;;20.80;99.90;;;;;;5061807;28;20062;-79
2021/07/20 05:54:46;;;;;;;14.82;10.25;;;21.00;99.90;;;;;;5043801;28;20530;-78
2021/07/20 05:57:13;;;;;;;11.40;9.05;;;20.70;99.90;;;;;;5063252;28;20025;-78
2021/07/20 05:59:42;;;;;;;11.98;9.85;;;20.80;99.90;;;;;;5063144;28;20504;-79
2021/07/20 06:02:12;;;;;;;15.25;9.88;;;21.00;99.90;;;;;;5061229;28;20021;-79
2021/07/20 06:04:39;;;;;;;11.45;9.98;;;20.70;99.90;;;;;;5045386;28;20101;-80
2021/07/20 06:07:07;;;;;;;22.20;11.27;;;20.70;99.90;;;;;;5060490;28;20032;-78
2021/07/20 06:09:33;;;;;;;16.25;10.32;;;20.40;99.90;;;;;;5059403;28;20021;-79
2021/07/20 06:12:00;;;;;;;13.25;9.35;;;21.00;99.90;;;;;;5064330;28;20067;-80
2021/07/20 06:14:29;;;;;;;10.52;8.82;;;20.70;99.90;;;;;;5066339;28;20036;-79
2021/07/20 06:16:55;;;;;;;15.95;10.60;;;20.90;99.90;;;;;;5065643;28;20032;-81
2021/07/20 06:19:21;;;;;;;16.15;10.57;;;20.60;99.90;;;;;;5068331;28;20221;-79
2021/07/20 06:21:48;;;;;;;16.15;10.40;;;20.60;99.90;;;;;;5067237;28;20032;-82
2021/07/20 06:24:14;;;;;;;17.95;9.73;;;20.80;99.90;;;;;;5062531;28;20052;-80
2021/07/20 06:26:41;;;;;;;11.82;9.88;;;20.80;99.90;;;;;;5061736;28;20036;-79
2021/07/20 06:29:09;;;;;;;14.45;9.50;;;20.70;99.90;;;;;;5066443;28;20025;-80
2021/07/20 06:31:46;;;;;;;11.52;9.38;;;20.60;99.90;;;;;;5066172;28;20492;-78
2021/07/20 06:34:15;;;;;;;14.35;9.98;;;20.00;99.90;;;;;;5064638;28;20448;-80
2021/07/20 06:36:42;;;;;;;12.50;10.45;;;19.90;99.90;;;;;;5067080;28;20029;-81
2021/07/20 06:39:08;;;;;;;12.77;9.48;;;20.40;99.90;;;;;;5054471;28;20071;-79
2021/07/20 06:41:35;;;;;;;17.20;10.38;;;20.70;99.90;;;;;;5045493;28;20016;-81
2021/07/20 06:44:03;;;;;;;15.02;9.90;;;20.80;99.90;;;;;;5061525;28;20041;-79
2021/07/20 06:46:32;;;;;;;13.75;11.30;;;20.00;99.90;;;;;;5043995;28;20061;-80
2021/07/20 06:48:59;;;;;;;14.48;10.45;;;19.60;99.90;;;;;;5061934;28;20037;-78
2021/07/20 06:51:29;;;;;;;17.25;11.00;;;19.60;99.90;;;;;;5061612;28;20025;-79
2021/07/20 06:53:56;;;;;;;14.05;10.73;;;20.00;99.90;;;;;;5069066;28;20017;-81
2021/07/20 06:56:49;;;;;;;13.98;9.68;;;19.90;99.90;;;;;;5070952;28;20039;-83
2021/07/20 06:59:16;;;;;;;14.70;10.13;;;20.20;99.90;;;;;;5067271;28;20093;-82
2021/07/20 07:01:43;;;;;;;13.95;10.10;;;20.60;99.90;;;;;;5069657;28;20045;-81
2021/07/20 07:04:24;;;;;;;11.45;9.65;;;20.40;99.90;;;;;;5075369;28;20063;-83
2021/07/20 07:06:53;;;;;;;12.10;9.95;;;20.70;99.90;;;;;;5074686;28;20001;-81
2021/07/20 07:09:20;;;;;;;12.98;9.70;;;20.60;99.90;;;;;;5062849;28;20256;-82
2021/07/20 07:11:49;;;;;;;15.70;9.55;;;20.40;99.90;;;;;;5065293;28;20068;-81
2021/07/20 07:14:23;;;;;;;12.60;9.25;;;20.40;99.90;;;;;;5070331;28;20048;-81
2021/07/20 07:16:56;;;;;;;12.60;9.77;;;20.70;99.90;;;;;;5058938;28;20045;-83
2021/07/20 07:19:25;;;;;;;12.88;10.45;;;20.80;99.90;;;;;;5055516;28;20047;-84
2021/07/20 07:22:01;;;;;;;15.65;9.90;;;20.80;99.90;;;;;;5075332;28;20021;-82
2021/07/20 07:24:43;;;;;;;17.67;10.02;;;20.80;99.90;;;;;;5074114;28;20032;-82
2021/07/20 07:27:09;;;;;;;11.50;10.15;;;20.90;99.90;;;;;;5054322;28;20053;-80
2021/07/20 07:29:45;;;;;;;16.73;10.00;;;20.40;99.90;;;;;;5071595;28;20028;-80
2021/07/20 07:32:11;;;;;;;11.68;9.68;;;20.30;99.90;;;;;;5034768;28;20005;-81
2021/07/20 07:34:44;;;;;;;11.05;8.93;;;20.80;99.90;;;;;;5042611;28;20020;-79
2021/07/20 07:37:18;;;;;;;10.20;9.13;;;20.50;99.90;;;;;;5050715;28;20025;-80
2021/07/20 07:39:51;;;;;;;12.07;9.73;;;20.60;99.90;;;;;;5057318;28;20044;-83
2021/07/20 07:42:26;;;;;;;14.30;9.48;;;20.50;99.90;;;;;;5059741;28;20063;-82
2021/07/20 07:45:00;;;;;;;28.80;11.30;;;20.80;99.90;;;;;;5060480;28;20014;-82
2021/07/20 07:47:29;;;;;;;13.27;8.38;;;20.90;99.90;;;;;;5061023;28;20051;-84
2021/07/20 07:49:56;;;;;;;12.00;9.35;;;21.10;99.90;;;;;;5057682;28;20019;-81
2021/07/20 07:52:22;;;;;;;10.15;8.63;;;21.50;99.90;;;;;;5060885;28;20005;-81
2021/07/20 07:54:48;;;;;;;10.07;8.95;;;21.70;99.90;;;;;;5077428;28;20024;-82
2021/07/20 07:57:17;;;;;;;17.17;10.10;;;21.90;99.90;;;;;;5077349;28;20013;-81
2021/07/20 07:59:44;;;;;;;20.08;9.95;;;21.80;99.90;;;;;;5057112;28;20033;-81
2021/07/20 08:02:13;;;;;;;12.27;9.20;;;22.00;99.90;;;;;;5046956;28;20039;-81
2021/07/20 08:04:41;;;;;;;12.18;9.38;;;22.10;99.90;;;;;;5067211;28;20043;-82
2021/07/20 08:07:08;;;;;;;12.60;9.07;;;22.00;99.90;;;;;;5077193;28;20010;-82
2021/07/20 08:09:35;;;;;;;10.07;8.20;;;21.60;99.90;;;;;;5078085;28;20013;-83
2021/07/20 08:12:02;;;;;;;11.45;9.90;;;21.50;99.90;;;;;;5077706;28;20032;-83
2021/07/20 08:14:29;;;;;;;16.13;8.25;;;21.70;99.90;;;;;;5060801;28;20032;-83
2021/07/20 08:17:02;;;;;;;11.82;8.52;;;21.70;99.90;;;;;;5077713;28;20009;-83
2021/07/20 08:19:31;;;;;;;12.10;8.48;;;21.70;99.90;;;;;;5060553;28;20052;-82
2021/07/20 08:22:02;;;;;;;12.82;8.60;;;22.10;99.90;;;;;;5077869;28;20108;-82
2021/07/20 08:24:35;;;;;;;12.48;7.60;;;21.80;99.90;;;;;;5077692;28;20024;-83
2021/07/20 08:27:20;;;;;;;13.18;8.55;;;22.00;99.90;;;;;;5059700;28;20037;-83
2021/07/20 08:29:50;;;;;;;11.57;8.48;;;22.20;99.90;;;;;;5071858;28;20088;-82
2021/07/20 08:32:20;;;;;;;12.30;8.43;;;22.30;99.90;;;;;;5051389;28;20020;-81
2021/07/20 08:34:51;;;;;;;8.75;7.28;;;22.30;99.90;;;;;;5068789;28;20017;-83
2021/07/20 08:37:18;;;;;;;9.00;7.55;;;22.50;99.90;;;;;;5069269;28;20024;-81
2021/07/20 08:39:48;;;;;;;11.52;8.15;;;22.90;99.90;;;;;;5074399;28;20025;-83
2021/07/20 08:42:31;;;;;;;10.63;7.75;;;23.10;99.90;;;;;;5073870;28;20032;-81
2021/07/20 08:44:56;;;;;;;8.00;7.20;;;22.70;99.90;;;;;;5076327;28;20104;-82
2021/07/20 08:47:47;;;;;;;11.23;8.20;;;22.20;99.90;;;;;;5066578;28;20037;-74
2021/07/20 08:50:27;;;;;;;13.93;7.55;;;21.80;99.90;;;;;;5053048;28;20072;-75
2021/07/20 08:53:27;;;;;;;16.42;7.07;;;22.00;99.90;;;;;;5036135;28;20476;-74
2021/07/20 08:55:53;;;;;;;8.90;7.72;;;22.60;99.90;;;;;;5053033;28;20029;-76
2021/07/20 08:58:42;;;;;;;9.65;7.88;;;22.70;99.90;;;;;;5031960;28;20024;-74
2021/07/20 09:01:26;;;;;;;9.80;7.20;;;22.20;99.90;;;;;;4999929;28;20444;-74
2021/07/20 09:04:03;;;;;;;8.02;7.18;;;22.20;99.90;;;;;;5033161;28;20133;-75
2021/07/20 09:06:34;;;;;;;8.23;7.03;;;22.50;99.90;;;;;;5015908;28;20071;-75
2021/07/20 09:09:20;;;;;;;;;;;22.70;99.90;;;;;;5033570;28;20022;-73
2021/07/20 09:11:48;;;;;;;11.77;8.57;;;22.20;99.90;;;;;;5033557;28;20336;-74
2021/07/20 09:14:13;;;;;;;10.43;8.77;;;22.30;99.90;;;;;;5057835;22;20080;-79
2021/07/20 09:16:46;;;;;;;12.93;8.68;;;22.40;99.90;;;;;;5021432;28;20034;-78
2021/07/20 09:19:15;;;;;;;9.55;8.50;;;22.00;99.90;;;;;;5040282;28;20025;-79
2021/07/20 09:21:49;;;;;;;12.40;8.90;;;22.30;99.90;;;;;;5020216;28;20093;-78
2021/07/20 09:24:34;;;;;;;11.48;8.98;;;22.30;99.90;;;;;;5019409;28;20022;-79
2021/07/20 09:27:10;;;;;;;11.13;8.55;;;22.60;99.90;;;;;;5035577;28;20285;-78
2021/07/20 09:29:38;;;;;;;14.23;9.70;;;23.00;99.90;;;;;;5039989;28;20021;-78
2021/07/20 09:32:22;;;;;;;10.93;9.18;;;22.60;99.90;;;;;;5024742;28;20060;-78
2021/07/20 09:35:10;;;;;;;11.32;8.82;;;22.60;99.90;;;;;;5038701;28;20040;-78
2021/07/20 09:37:47;;;;;;;10.60;8.40;;;23.30;99.90;;;;;;5020046;28;20032;-78
2021/07/20 09:40:37;;;;;;;9.85;7.82;;;22.80;99.90;;;;;;5020189;28;20025;-79
2021/07/20 09:43:24;;;;;;;12.23;8.65;;;22.80;99.90;;;;;;5035659;28;20036;-79
2021/07/20 09:45:55;;;;;;;11.25;8.45;;;23.60;99.90;;;;;;5019751;28;20026;-78
2021/07/20 09:48:36;;;;;;;;;;;23.40;99.90;;;;;;5039244;28;20493;-80
2021/07/20 09:51:24;;;;;;;12.52;8.40;;;23.40;99.90;;;;;;5023752;28;20129;-78
2021/07/20 09:54:08;;;;;;;11.35;9.13;;;23.90;99.90;;;;;;5042166;28;20103;-79
2021/07/20 09:57:00;;;;;;;11.30;9.02;;;24.00;99.90;;;;;;5042703;28;20018;-78
2021/07/20 09:59:55;;;;;;;13.52;9.52;;;23.30;99.90;;;;;;5023900;28;20033;-79
2021/07/20 10:02:47;;;;;;;13.70;9.95;;;23.60;99.90;;;;;;5042624;28;20021;-79
2021/07/20 10:05:25;;;;;;;12.02;9.75;;;23.90;99.90;;;;;;5023103;28;20167;-78
2021/07/20 10:08:03;;;;;;;11.93;9.00;;;23.40;99.90;;;;;;5042822;28;20104;-78
2021/07/20 10:10:47;;;;;;;11.10;8.65;;;23.30;99.90;;;;;;5008287;28;20043;-78
2021/07/20 10:13:37;;;;;;;12.60;8.68;;;23.70;99.90;;;;;;5024314;28;20036;-79
2021/07/20 10:16:26;;;;;;;10.45;9.35;;;23.50;99.90;;;;;;5042030;28;20037;-78
2021/07/20 10:19:04;;;;;;;12.43;9.82;;;23.00;99.90;;;;;;5044280;28;20081;-79
2021/07/20 10:21:32;;;;;;;11.70;9.95;;;22.80;99.90;;;;;;5043953;28;20018;-81
2021/07/20 10:24:00;;;;;;;14.63;10.30;;;22.90;99.90;;;;;;5042185;28;20024;-79
2021/07/20 10:26:37;;;;;;;12.88;9.60;;;23.10;99.90;;;;;;5042053;28;20032;-78
2021/07/20 10:29:12;;;;;;;10.40;8.93;;;23.60;99.90;;;;;;5041810;28;20029;-78
2021/07/20 10:31:48;;;;;;;11.98;9.50;;;23.80;99.90;;;;;;5025520;28;20057;-79
2021/07/20 10:34:20;;;;;;;13.20;10.43;;;24.20;99.90;;;;;;5041932;28;20083;-80
2021/07/20 10:36:53;;;;;;;11.93;9.98;;;23.60;99.90;;;;;;5040479;28;20649;-79
2021/07/20 10:39:26;;;;;;;10.18;9.07;;;23.40;99.90;;;;;;5043912;28;20017;-78
2021/07/20 10:42:12;;;;;;;11.48;9.27;;;24.10;99.50;;;;;;5042190;28;20036;-79
2021/07/20 10:45:05;;;;;;;12.23;10.27;;;24.10;99.50;;;;;;5041752;28;20019;-79
2021/07/20 10:47:51;;;;;;;12.27;9.18;;;24.20;99.80;;;;;;5041339;28;20025;-79
2021/07/20 10:50:54;;;;;;;11.80;9.68;;;24.50;98.80;;;;;;5017928;28;20072;-79
2021/07/20 10:53:43;;;;;;;11.43;9.45;;;23.80;99.20;;;;;;5041083;28;20075;-77
2021/07/20 10:56:27;;;;;;;11.38;9.48;;;23.40;99.90;;;;;;5039868;28;20033;-78
2021/07/20 10:59:05;;;;;;;10.82;9.18;;;23.70;99.90;;;;;;5019452;28;20405;-78
2021/07/20 11:01:57;;;;;;;11.95;10.23;;;24.10;99.10;;;;;;5038586;28;20048;-78
2021/07/20 11:04:42;;;;;;;11.02;9.88;;;23.70;99.00;;;;;;5022514;28;20397;-78
2021/07/20 11:07:09;;;;;;;10.43;9.43;;;23.70;99.40;;;;;;5036359;28;20033;-78
2021/07/20 11:09:38;;;;;;;12.48;9.55;;;23.90;98.60;;;;;;5020363;28;20488;-78
2021/07/20 11:12:06;;;;;;;10.98;9.35;;;23.70;98.50;;;;;;5035239;28;20056;-78
2021/07/20 11:14:44;;;;;;;12.57;9.55;;;23.90;98.80;;;;;;5020820;28;20485;-78
2021/07/20 11:17:10;;;;;;;10.77;9.68;;;24.00;98.40;;;;;;5020110;28;20366;-78
2021/07/20 11:19:37;;;;;;;12.85;10.57;;;23.70;99.30;;;;;;5032260;28;20052;-79
2021/07/20 11:22:04;;;;;;;10.13;8.90;;;23.20;99.00;;;;;;5017088;28;20048;-78
2021/07/20 11:24:30;;;;;;;17.02;10.38;;;23.60;99.10;;;;;;5013675;28;20097;-78
2021/07/20 11:27:00;;;;;;;12.48;9.70;;;23.60;99.10;;;;;;5036524;28;20040;-79
2021/07/20 11:29:27;;;;;;;12.27;9.32;;;24.20;98.40;;;;;;5021622;28;20084;-77
2021/07/20 11:31:55;;;;;;;11.05;9.57;;;24.70;97.30;;;;;;5029975;28;20037;-79
2021/07/20 11:34:28;;;;;;;15.30;9.52;;;25.40;96.00;;;;;;5033144;28;20026;-79
2021/07/20 11:36:57;;;;;;;11.45;9.52;;;25.00;96.40;;;;;;5027521;28;20041;-79
2021/07/20 11:39:29;;;;;;;10.95;9.38;;;24.80;96.30;;;;;;5037179;28;20099;-79
2021/07/20 11:42:09;;;;;;;11.80;9.70;;;25.00;96.50;;;;;;5038723;28;20029;-78
2021/07/20 11:45:01;;;;;;;11.65;8.90;;;24.80;96.40;;;;;;5040404;28;20485;-79
2021/07/20 11:47:32;;;;;;;13.27;10.50;;;24.80;96.00;;;;;;5033192;28;20033;-79
2021/07/20 11:49:58;;;;;;;;;;;25.20;95.80;;;;;;5038882;28;20033;-78
2021/07/20 11:52:46;;;;;;;11.73;9.27;;;25.10;95.30;;;;;;5020317;28;19905;-78
2021/07/20 11:55:28;;;;;;;11.18;9.48;;;24.40;96.30;;;;;;5021428;28;20021;-79
2021/07/20 11:58:15;;;;;;;10.07;8.50;;;24.30;97.10;;;;;;5020181;28;20029;-79
2021/07/20 12:01:02;;;;;;;13.00;10.02;;;24.80;96.80;;;;;;5020078;28;20022;-78
2021/07/20 12:03:52;;;;;;;10.05;9.05;;;24.40;95.70;;;;;;5039012;28;20032;-79
2021/07/20 12:06:52;;;;;;;14.57;9.53;;;24.50;96.30;;;;;;5018168;28;20033;-78
2021/07/20 12:09:31;;;;;;;13.35;9.68;;;24.90;95.50;;;;;;5030647;28;20443;-80
2021/07/20 12:11:58;;;;;;;11.27;8.75;;;24.50;95.40;;;;;;5022513;28;20061;-79
2021/07/20 12:14:24;;;;;;;10.52;9.30;;;24.50;94.90;;;;;;5033572;28;20124;-79
2021/07/20 12:16:50;;;;;;;10.88;9.48;;;24.30;94.20;;;;;;5026341;28;20030;-77
2021/07/20 12:19:28;;;;;;;11.90;9.63;;;24.50;94.20;;;;;;5034464;28;20033;-79
2021/07/20 12:21:53;;;;;;;11.68;9.23;;;25.20;93.10;;;;;;5028387;28;20025;-78
2021/07/20 12:24:22;;;;;;;11.25;9.35;;;25.80;92.10;;;;;;5032752;28;20025;-78
2021/07/20 12:26:48;;;;;;;10.63;9.52;;;25.80;91.90;;;;;;5019958;28;20108;-78
2021/07/20 12:29:17;;;;;;;10.02;9.00;;;25.90;92.10;;;;;;5003820;28;20025;-78
2021/07/20 12:31:43;;;;;;;9.48;8.50;;;25.60;92.50;;;;;;5037916;28;20028;-79
2021/07/20 12:34:09;;;;;;;12.05;8.95;;;25.00;93.00;;;;;;5039194;28;20049;-79
2021/07/20 12:36:35;;;;;;;12.05;9.57;;;25.30;92.40;;;;;;5020348;28;20489;-78
2021/07/20 12:39:06;;;;;;;11.18;9.43;;;25.50;92.50;;;;;;5038760;28;20033;-79
2021/07/20 12:41:34;;;;;;;9.90;8.90;;;25.80;91.30;;;;;;5037332;28;20025;-78
2021/07/20 12:44:01;;;;;;;13.52;9.55;;;26.10;91.10;;;;;;5019620;28;20088;-79
2021/07/20 12:46:29;;;;;;;13.27;9.18;;;26.10;91.30;;;;;;5018157;28;20026;-79
2021/07/20 12:48:55;;;;;;;13.57;10.02;;;25.80;92.20;;;;;;5039132;28;20445;-78
2021/07/20 12:51:23;;;;;;;11.88;9.63;;;25.80;92.00;;;;;;5038887;28;20337;-78
2021/07/20 12:53:53;;;;;;;13.65;10.13;;;26.00;91.90;;;;;;5020546;28;20057;-78
2021/07/20 12:56:21;;;;;;;11.55;10.35;;;25.90;91.80;;;;;;5019374;28;20025;-79
2021/07/20 12:58:50;;;;;;;12.27;9.02;;;25.60;91.50;;;;;;5019402;28;20031;-78